Time;durP1;ratioP1;P1;durP2;ratioP2;P2;SDS_P1;SDS_P2;PMS_P1;PMS_P2;Temp;Humidity;BMP_temperature;BMP_pressure;BME280_temperature;BME280_humidity;BME280_pressure;Samples;Min_cycle;Max_cycle;Signal;HPM_P1;HPM_P2
2021/08/27 00:00:19;;;;;;;2.20;1.58;;;14.30;99.90;;;;;;5061815;28;20097;-44
2021/08/27 00:02:44;;;;;;;5.38;2.30;;;14.20;99.90;;;;;;5059222;28;20028;-43
2021/08/27 00:05:10;;;;;;;6.70;2.22;;;14.30;99.90;;;;;;5066039;28;20028;-43
2021/08/27 00:07:36;;;;;;;7.45;2.40;;;14.30;99.90;;;;;;5070684;28;20258;-42
2021/08/27 00:10:02;;;;;;;8.80;2.45;;;14.30;99.90;;;;;;5069037;28;20417;-43
2021/08/27 00:12:27;;;;;;;3.67;2.25;;;14.20;99.90;;;;;;5055545;28;20086;-43
2021/08/27 00:14:54;;;;;;;6.93;2.00;;;14.30;99.90;;;;;;5089558;28;20024;-43
2021/08/27 00:17:29;;;;;;;4.43;2.00;;;14.20;99.90;;;;;;5090938;28;20028;-43
2021/08/27 00:19:55;;;;;;;4.78;2.20;;;14.20;99.90;;;;;;5079667;28;20028;-43
2021/08/27 00:22:20;;;;;;;6.80;2.40;;;14.20;99.90;;;;;;5059960;28;20029;-42
2021/08/27 00:24:46;;;;;;;6.07;1.90;;;14.20;99.90;;;;;;5060621;28;20036;-42
2021/08/27 00:27:11;;;;;;;5.40;2.10;;;14.20;99.90;;;;;;5057838;28;20493;-42
2021/08/27 00:29:37;;;;;;;8.88;2.17;;;14.20;99.90;;;;;;5060832;28;20035;-40
2021/08/27 00:32:02;;;;;;;4.35;2.50;;;14.10;99.90;;;;;;5060813;28;20429;-43
2021/08/27 00:34:28;;;;;;;7.95;2.35;;;14.20;99.90;;;;;;5056574;28;20134;-42
2021/08/27 00:36:53;;;;;;;5.07;2.20;;;14.20;99.90;;;;;;5050224;28;20391;-42
2021/08/27 00:39:19;;;;;;;4.13;2.30;;;14.10;99.90;;;;;;5059692;28;20024;-40
2021/08/27 00:41:44;;;;;;;5.15;1.90;;;14.10;99.90;;;;;;5061927;28;20076;-43
2021/08/27 00:44:10;;;;;;;5.03;2.47;;;14.10;99.90;;;;;;5064163;28;20119;-40
2021/08/27 00:46:35;;;;;;;6.07;2.22;;;14.10;99.90;;;;;;5060662;28;20342;-40
2021/08/27 00:49:01;;;;;;;6.85;2.10;;;14.10;99.90;;;;;;5059824;28;20021;-40
2021/08/27 00:51:26;;;;;;;5.00;2.38;;;14.10;99.90;;;;;;5059700;28;20068;-40
2021/08/27 00:53:52;;;;;;;4.60;2.13;;;14.10;99.90;;;;;;5061235;28;20016;-41
2021/08/27 00:56:17;;;;;;;6.10;2.17;;;14.00;99.90;;;;;;5055748;28;20043;-41
2021/08/27 00:58:43;;;;;;;4.32;2.05;;;14.00;99.90;;;;;;5059945;28;20033;-41
2021/08/27 01:01:08;;;;;;;4.53;2.05;;;14.00;99.90;;;;;;5055477;28;20079;-42
2021/08/27 01:03:35;;;;;;;5.28;2.47;;;13.90;99.90;;;;;;5050029;28;20021;-42
2021/08/27 01:06:13;;;;;;;5.20;2.03;;;13.90;99.90;;;;;;5050133;28;20021;-41
2021/08/27 01:08:52;;;;;;;9.00;2.80;;;13.90;99.90;;;;;;5050516;28;20107;-41
2021/08/27 01:11:30;;;;;;;4.10;2.13;;;13.90;99.90;;;;;;5059426;28;20078;-42
2021/08/27 01:14:03;;;;;;;8.48;2.58;;;13.90;99.90;;;;;;5081750;28;20085;-42
2021/08/27 01:16:35;;;;;;;3.85;1.80;;;13.80;99.90;;;;;;5089546;28;20024;-41
2021/08/27 01:19:03;;;;;;;3.92;2.00;;;13.80;99.90;;;;;;5090003;28;20024;-42
2021/08/27 01:21:44;;;;;;;6.38;2.20;;;13.70;99.90;;;;;;5088894;28;20044;-43
2021/08/27 01:24:10;;;;;;;;;;;13.80;99.90;;;;;;5090586;28;20027;-42
2021/08/27 01:26:42;;;;;;;7.13;2.38;;;13.70;99.90;;;;;;5089338;28;19907;-43
2021/08/27 01:29:09;;;;;;;6.22;2.42;;;13.70;99.90;;;;;;5090168;28;20020;-42
2021/08/27 01:31:42;;;;;;;6.93;2.17;;;13.70;99.90;;;;;;5090221;28;20035;-42
2021/08/27 01:34:36;;;;;;;7.22;2.45;;;13.70;99.90;;;;;;5090028;28;20024;-42
2021/08/27 01:37:08;;;;;;;4.38;2.67;;;13.60;99.90;;;;;;5089208;28;20270;-42
2021/08/27 01:39:37;;;;;;;4.43;2.70;;;13.50;99.90;;;;;;5089666;28;20028;-43
2021/08/27 01:42:05;;;;;;;4.88;2.20;;;13.50;99.90;;;;;;5071679;28;20024;-42
2021/08/27 01:44:30;;;;;;;8.93;2.55;;;13.50;99.90;;;;;;5084295;28;20016;-43
2021/08/27 01:47:01;;;;;;;7.93;2.30;;;13.50;99.90;;;;;;5089089;28;20042;-42
2021/08/27 01:49:31;;;;;;;5.85;2.10;;;13.50;99.90;;;;;;5089519;28;20024;-42
2021/08/27 01:51:58;;;;;;;6.47;2.72;;;13.40;99.90;;;;;;5089513;28;20028;-42
2021/08/27 01:54:24;;;;;;;7.15;2.65;;;13.40;99.90;;;;;;5089540;28;20020;-42
2021/08/27 01:56:51;;;;;;;9.85;2.70;;;13.50;99.90;;;;;;5087823;28;20551;-43
2021/08/27 01:59:18;;;;;;;9.85;3.15;;;13.40;99.90;;;;;;5071315;28;20039;-41
2021/08/27 02:01:44;;;;;;;7.28;2.67;;;13.40;99.90;;;;;;5087997;28;20520;-42
2021/08/27 02:04:14;;;;;;;5.13;2.65;;;13.40;99.90;;;;;;5089397;28;20039;-42
2021/08/27 02:06:41;;;;;;;6.97;3.03;;;13.40;99.90;;;;;;5088694;28;20024;-41
2021/08/27 02:09:08;;;;;;;4.80;2.75;;;13.30;99.90;;;;;;5089354;28;20766;-41
2021/08/27 02:11:35;;;;;;;6.35;2.83;;;13.30;99.90;;;;;;5075288;28;20107;-41
2021/08/27 02:14:01;;;;;;;9.35;3.38;;;13.30;99.90;;;;;;5080481;28;20073;-41
2021/08/27 02:16:27;;;;;;;5.65;2.40;;;13.30;99.90;;;;;;5088336;28;20073;-41
2021/08/27 02:18:53;;;;;;;4.32;2.80;;;13.40;99.90;;;;;;5089047;28;20032;-41
2021/08/27 02:21:21;;;;;;;8.93;3.10;;;13.40;99.90;;;;;;5089579;28;20362;-42
2021/08/27 02:23:48;;;;;;;8.48;3.08;;;13.40;99.90;;;;;;5089305;28;20481;-42
2021/08/27 02:26:15;;;;;;;6.00;2.90;;;13.40;99.90;;;;;;5088064;28;20028;-42
2021/08/27 02:28:43;;;;;;;8.27;2.85;;;13.40;99.90;;;;;;5088979;28;20020;-42
2021/08/27 02:31:09;;;;;;;9.90;3.63;;;13.40;99.90;;;;;;5071411;28;20043;-41
2021/08/27 02:33:37;;;;;;;5.00;3.42;;;13.40;99.90;;;;;;5088905;28;20112;-47
2021/08/27 02:36:03;;;;;;;6.70;3.28;;;13.40;99.90;;;;;;5088794;28;20020;-47
2021/08/27 02:38:30;;;;;;;6.22;3.50;;;13.40;99.90;;;;;;5088621;28;20113;-48
2021/08/27 02:40:55;;;;;;;5.68;3.20;;;13.40;99.90;;;;;;5074380;28;20072;-47
2021/08/27 02:43:21;;;;;;;7.50;3.70;;;13.40;99.90;;;;;;5080255;28;20047;-46
2021/08/27 02:45:46;;;;;;;6.88;3.00;;;13.30;99.90;;;;;;5089028;28;20027;-46
2021/08/27 02:48:12;;;;;;;5.75;3.20;;;13.30;99.90;;;;;;5088391;28;20034;-46
2021/08/27 02:50:46;;;;;;;4.50;2.85;;;13.40;99.90;;;;;;5088786;28;20325;-46
2021/08/27 02:53:17;;;;;;;8.60;3.58;;;13.40;99.90;;;;;;5088996;28;20020;-48
2021/08/27 02:55:44;;;;;;;;;;;13.40;99.90;;;;;;5088864;28;20455;-46
2021/08/27 02:58:26;;;;;;;9.93;4.15;;;13.40;99.90;;;;;;5086670;28;20050;-46
2021/08/27 03:00:58;;;;;;;7.20;3.72;;;13.30;99.90;;;;;;5088514;28;20051;-46
2021/08/27 03:03:26;;;;;;;7.28;3.67;;;13.30;99.90;;;;;;5088576;28;20107;-45
2021/08/27 03:05:57;;;;;;;8.15;3.85;;;13.30;99.90;;;;;;5087219;28;20466;-45
2021/08/27 03:08:24;;;;;;;6.78;3.50;;;13.30;99.90;;;;;;5087741;28;20035;-49
2021/08/27 03:11:09;;;;;;;10.10;3.60;;;13.30;99.90;;;;;;5075440;28;20061;-45
2021/08/27 03:13:43;;;;;;;9.60;3.72;;;13.30;99.90;;;;;;5078776;28;20047;-45
2021/08/27 03:16:11;;;;;;;9.77;3.42;;;13.30;99.90;;;;;;5088406;28;20382;-46
2021/08/27 03:18:54;;;;;;;5.78;3.00;;;13.30;99.90;;;;;;5088312;28;20028;-45
2021/08/27 03:21:38;;;;;;;5.60;3.92;;;13.40;99.90;;;;;;5088376;28;20291;-45
2021/08/27 03:24:20;;;;;;;5.68;3.10;;;13.30;99.90;;;;;;5088901;28;20363;-47
2021/08/27 03:27:01;;;;;;;12.05;3.78;;;13.30;99.90;;;;;;5087854;28;20066;-45
2021/08/27 03:29:30;;;;;;;6.18;3.28;;;13.30;99.90;;;;;;5088338;28;20028;-44
2021/08/27 03:31:57;;;;;;;10.15;3.53;;;13.30;99.90;;;;;;5088313;28;20064;-46
2021/08/27 03:34:24;;;;;;;5.93;3.20;;;13.30;99.90;;;;;;5088229;28;20016;-45
2021/08/27 03:36:51;;;;;;;6.10;3.42;;;13.30;99.90;;;;;;5087801;28;20020;-45
2021/08/27 03:39:18;;;;;;;9.55;3.50;;;13.30;99.90;;;;;;5088240;28;20456;-45
2021/08/27 03:41:44;;;;;;;7.75;3.63;;;13.30;99.90;;;;;;5074565;28;20465;-46
2021/08/27 03:44:11;;;;;;;7.25;3.40;;;13.30;99.90;;;;;;5080627;28;20016;-46
2021/08/27 03:46:37;;;;;;;7.50;3.17;;;13.30;99.90;;;;;;5087724;28;20412;-45
2021/08/27 03:49:03;;;;;;;6.47;3.40;;;13.30;99.90;;;;;;5088421;28;20145;-46
2021/08/27 03:51:29;;;;;;;7.55;2.90;;;13.30;99.90;;;;;;5067461;28;20100;-46
2021/08/27 03:53:55;;;;;;;8.95;3.38;;;13.20;99.90;;;;;;5068040;28;20063;-45
2021/08/27 03:56:23;;;;;;;8.77;2.67;;;13.20;99.90;;;;;;5065659;28;20021;-46
2021/08/27 03:58:49;;;;;;;7.35;2.70;;;13.20;99.90;;;;;;5065369;28;20037;-45
2021/08/27 04:01:15;;;;;;;8.85;2.92;;;13.20;99.90;;;;;;5067515;28;20090;-47
2021/08/27 04:03:41;;;;;;;4.05;2.80;;;13.20;99.90;;;;;;5066579;28;20033;-46
2021/08/27 04:06:08;;;;;;;3.83;2.78;;;13.20;99.90;;;;;;5067605;28;20013;-46
2021/08/27 04:08:41;;;;;;;4.80;2.50;;;13.20;99.90;;;;;;5067167;28;20027;-47
2021/08/27 04:11:08;;;;;;;5.85;3.30;;;13.20;99.90;;;;;;5064765;28;20432;-45
2021/08/27 04:13:34;;;;;;;7.47;3.40;;;13.20;99.90;;;;;;5079136;28;20281;-46
2021/08/27 04:16:00;;;;;;;6.53;2.92;;;13.20;99.90;;;;;;5087745;28;20055;-45
2021/08/27 04:18:25;;;;;;;9.40;3.30;;;13.20;99.90;;;;;;5087165;28;20032;-45
2021/08/27 04:20:51;;;;;;;6.03;3.42;;;13.20;99.90;;;;;;5090707;28;20059;-45
2021/08/27 04:23:16;;;;;;;7.15;2.60;;;13.20;99.90;;;;;;5091492;28;20024;-45
2021/08/27 04:25:42;;;;;;;5.93;2.45;;;13.20;99.90;;;;;;5091198;28;20667;-45
2021/08/27 04:28:08;;;;;;;4.85;2.47;;;13.30;99.90;;;;;;5090650;28;20032;-45
2021/08/27 04:30:34;;;;;;;7.50;2.72;;;13.20;99.90;;;;;;5091306;28;20040;-46
2021/08/27 04:33:00;;;;;;;7.70;3.60;;;13.20;99.90;;;;;;5091187;28;20115;-47
2021/08/27 04:35:26;;;;;;;15.23;3.05;;;13.20;99.90;;;;;;5091202;28;20039;-45
2021/08/27 04:37:53;;;;;;;7.07;3.60;;;13.30;99.90;;;;;;5090989;28;20016;-46
2021/08/27 04:40:19;;;;;;;10.88;2.97;;;13.30;99.90;;;;;;5072393;28;20021;-45
2021/08/27 04:42:45;;;;;;;6.38;2.95;;;13.20;99.90;;;;;;5078936;28;20021;-45
2021/08/27 04:45:11;;;;;;;6.93;3.08;;;13.30;99.90;;;;;;5090859;28;20154;-46
2021/08/27 04:47:36;;;;;;;6.97;2.90;;;13.20;99.90;;;;;;5090146;28;20028;-45
2021/08/27 04:50:03;;;;;;;7.05;2.90;;;13.30;99.90;;;;;;5091046;28;20401;-46
2021/08/27 04:52:28;;;;;;;9.15;2.60;;;13.20;99.90;;;;;;5090787;28;20035;-45
2021/08/27 04:54:53;;;;;;;7.15;2.72;;;13.20;99.90;;;;;;5090731;28;20032;-46
2021/08/27 04:57:19;;;;;;;6.30;3.22;;;13.20;99.90;;;;;;5089591;28;20103;-46
2021/08/27 04:59:46;;;;;;;10.05;3.08;;;13.20;99.90;;;;;;5068257;28;20447;-46
2021/08/27 05:02:12;;;;;;;8.15;2.75;;;13.20;99.90;;;;;;5070439;28;20023;-45
2021/08/27 05:04:38;;;;;;;7.63;2.95;;;13.20;99.90;;;;;;5052233;28;20056;-46
2021/08/27 05:07:04;;;;;;;7.35;2.33;;;13.30;99.90;;;;;;5069759;28;20113;-45
2021/08/27 05:09:30;;;;;;;10.57;3.13;;;13.20;99.90;;;;;;5070212;28;20382;-45
2021/08/27 05:11:55;;;;;;;7.15;3.08;;;13.20;99.90;;;;;;5072671;28;20043;-46
2021/08/27 05:14:21;;;;;;;8.45;3.17;;;13.30;99.90;;;;;;5083411;28;20040;-45
2021/08/27 05:16:46;;;;;;;7.63;3.10;;;13.30;99.90;;;;;;5089281;28;20126;-47
2021/08/27 05:19:12;;;;;;;7.15;2.80;;;13.30;99.90;;;;;;5090643;28;20024;-45
2021/08/27 05:21:38;;;;;;;6.38;2.70;;;13.20;99.90;;;;;;5090344;28;20062;-45
2021/08/27 05:24:05;;;;;;;8.65;2.80;;;13.20;99.90;;;;;;5088933;28;20035;-45
2021/08/27 05:26:30;;;;;;;7.05;3.03;;;13.20;99.90;;;;;;5089242;28;20035;-45
2021/08/27 05:28:56;;;;;;;9.30;3.10;;;13.20;99.90;;;;;;5090413;28;20476;-46
2021/08/27 05:31:22;;;;;;;6.32;2.97;;;13.20;99.90;;;;;;5088797;28;20028;-45
2021/08/27 05:33:47;;;;;;;5.35;2.80;;;13.20;99.90;;;;;;5090051;28;20496;-45
2021/08/27 05:36:13;;;;;;;7.75;2.90;;;13.20;99.90;;;;;;5089543;28;20039;-45
2021/08/27 05:38:38;;;;;;;9.35;3.60;;;13.20;99.90;;;;;;5089866;28;20073;-46
2021/08/27 05:41:04;;;;;;;7.63;2.55;;;13.20;99.90;;;;;;5078158;28;20027;-45
2021/08/27 05:43:30;;;;;;;8.95;2.78;;;13.20;99.90;;;;;;5081533;28;20464;-46
2021/08/27 05:45:56;;;;;;;8.15;2.83;;;13.10;99.90;;;;;;5089932;28;20111;-46
2021/08/27 05:48:21;;;;;;;9.82;3.13;;;13.10;99.90;;;;;;5089400;28;20074;-47
2021/08/27 05:50:48;;;;;;;7.10;2.35;;;13.10;99.90;;;;;;5090100;28;20097;-46
2021/08/27 05:53:14;;;;;;;6.00;3.08;;;13.10;99.90;;;;;;5090170;28;20491;-46
2021/08/27 05:55:40;;;;;;;7.22;2.70;;;13.00;99.90;;;;;;5089441;28;20028;-46
2021/08/27 05:58:05;;;;;;;9.90;3.53;;;13.00;99.90;;;;;;5089157;28;20046;-46
2021/08/27 06:00:31;;;;;;;7.22;2.90;;;12.90;99.90;;;;;;5089696;28;20058;-46
2021/08/27 06:02:57;;;;;;;8.15;3.33;;;12.90;99.90;;;;;;5066316;28;20060;-46
2021/08/27 06:05:22;;;;;;;4.30;2.47;;;12.90;99.90;;;;;;5049534;28;20029;-47
2021/08/27 06:07:49;;;;;;;12.23;3.45;;;12.80;99.90;;;;;;5053152;28;20029;-46
2021/08/27 06:10:15;;;;;;;9.02;3.13;;;12.80;99.90;;;;;;5067164;28;20392;-46
2021/08/27 06:12:41;;;;;;;7.03;2.78;;;12.70;99.90;;;;;;5073204;28;20123;-46
2021/08/27 06:15:08;;;;;;;10.50;3.17;;;12.70;99.90;;;;;;5089102;28;20538;-46
2021/08/27 06:17:33;;;;;;;6.47;3.38;;;12.60;99.90;;;;;;5087304;28;20043;-47
2021/08/27 06:19:59;;;;;;;9.57;3.15;;;12.70;99.90;;;;;;5088881;28;20493;-48
2021/08/27 06:22:24;;;;;;;9.02;3.80;;;12.60;99.90;;;;;;5089236;28;20430;-46
2021/08/27 06:24:50;;;;;;;8.02;3.20;;;12.60;99.90;;;;;;5088951;28;20020;-49
2021/08/27 06:27:16;;;;;;;7.68;3.13;;;12.60;99.90;;;;;;5088192;28;20087;-49
2021/08/27 06:29:41;;;;;;;6.07;3.20;;;12.60;99.90;;;;;;5072147;28;20025;-50
2021/08/27 06:32:07;;;;;;;6.35;2.88;;;12.60;99.90;;;;;;5049070;28;20033;-47
2021/08/27 06:34:33;;;;;;;11.52;3.50;;;12.60;99.90;;;;;;5048489;28;20079;-50
2021/08/27 06:36:58;;;;;;;11.52;3.53;;;12.60;99.90;;;;;;5047887;28;20029;-47
2021/08/27 06:39:24;;;;;;;14.85;4.80;;;12.70;99.90;;;;;;5048524;28;20021;-46
2021/08/27 06:41:50;;;;;;;9.85;3.40;;;12.70;99.90;;;;;;5065273;28;20020;-47
2021/08/27 06:44:15;;;;;;;12.80;3.63;;;12.70;99.90;;;;;;5081258;28;20477;-46
2021/08/27 06:46:43;;;;;;;10.38;3.63;;;12.70;99.90;;;;;;5088044;28;20085;-48
2021/08/27 06:49:09;;;;;;;13.52;3.40;;;12.70;99.90;;;;;;5088705;28;20012;-46
2021/08/27 06:51:35;;;;;;;13.88;4.10;;;12.70;99.90;;;;;;5088820;28;20012;-46
2021/08/27 06:54:00;;;;;;;10.02;3.90;;;12.70;99.90;;;;;;5087396;28;20381;-46
2021/08/27 06:56:26;;;;;;;10.68;3.83;;;12.70;99.90;;;;;;5086840;28;20040;-46
2021/08/27 06:58:51;;;;;;;15.27;4.07;;;12.70;99.90;;;;;;5087310;28;20114;-46
2021/08/27 07:01:18;;;;;;;9.45;3.33;;;12.70;99.90;;;;;;5089004;28;20046;-46
2021/08/27 07:03:43;;;;;;;10.60;3.55;;;12.70;99.90;;;;;;5088895;28;20035;-46
2021/08/27 07:06:09;;;;;;;9.02;3.33;;;12.70;99.90;;;;;;5088803;28;20024;-47
2021/08/27 07:08:34;;;;;;;9.25;3.40;;;12.70;99.90;;;;;;5088444;28;20081;-46
2021/08/27 07:11:00;;;;;;;7.07;3.88;;;12.70;99.90;;;;;;5081996;28;20166;-47
2021/08/27 07:13:25;;;;;;;7.72;3.58;;;12.80;99.90;;;;;;5080281;28;20044;-46
2021/08/27 07:15:51;;;;;;;8.32;3.50;;;12.70;99.90;;;;;;5088538;28;20116;-46
2021/08/27 07:18:17;;;;;;;11.43;4.07;;;12.70;99.90;;;;;;5086514;28;20202;-47
2021/08/27 07:20:42;;;;;;;10.32;3.63;;;12.70;99.90;;;;;;5088876;28;20369;-46
2021/08/27 07:23:10;;;;;;;16.63;4.45;;;12.70;99.90;;;;;;5088254;28;20020;-47
2021/08/27 07:25:36;;;;;;;8.45;3.78;;;12.70;99.90;;;;;;5088299;28;20510;-46
2021/08/27 07:28:02;;;;;;;8.05;4.13;;;12.70;99.90;;;;;;5087630;28;20050;-47
2021/08/27 07:30:28;;;;;;;10.98;4.00;;;12.70;99.90;;;;;;5088261;28;20056;-47
2021/08/27 07:32:53;;;;;;;9.05;3.47;;;12.60;99.90;;;;;;5088415;28;20150;-46
2021/08/27 07:35:19;;;;;;;10.73;4.00;;;12.60;99.90;;;;;;5081094;28;20459;-48
2021/08/27 07:37:44;;;;;;;10.40;3.83;;;12.60;99.90;;;;;;5048796;28;20029;-50
2021/08/27 07:40:13;;;;;;;9.45;3.97;;;12.70;99.90;;;;;;5048235;28;20486;-47
2021/08/27 07:42:40;;;;;;;8.10;4.05;;;12.70;99.90;;;;;;5071467;28;20028;-50
2021/08/27 07:45:05;;;;;;;8.05;3.85;;;12.70;99.90;;;;;;5087612;28;20016;-48
2021/08/27 07:47:31;;;;;;;6.85;3.15;;;12.70;99.90;;;;;;5087507;28;20504;-47
2021/08/27 07:49:57;;;;;;;4.82;3.25;;;12.70;99.90;;;;;;5086274;28;20028;-48
2021/08/27 07:52:22;;;;;;;7.45;3.30;;;12.70;99.90;;;;;;5087413;28;20569;-47
2021/08/27 07:54:48;;;;;;;10.68;3.67;;;12.70;99.90;;;;;;5088956;28;20031;-47
2021/08/27 07:57:13;;;;;;;6.35;3.67;;;12.70;99.90;;;;;;5090217;28;20112;-47
2021/08/27 07:59:39;;;;;;;4.90;3.88;;;12.80;99.90;;;;;;5076823;28;20386;-48
2021/08/27 08:02:05;;;;;;;9.25;3.45;;;12.80;99.90;;;;;;5061407;28;20051;-47
2021/08/27 08:04:30;;;;;;;7.60;3.45;;;12.80;99.90;;;;;;5056960;28;20028;-47
2021/08/27 08:06:56;;;;;;;5.43;2.78;;;12.90;99.90;;;;;;5061440;28;20225;-49
2021/08/27 08:09:21;;;;;;;4.50;2.83;;;13.00;99.90;;;;;;5061442;28;20017;-50
2021/08/27 08:11:47;;;;;;;7.03;3.08;;;13.00;99.90;;;;;;5062958;28;20017;-49
2021/08/27 08:14:13;;;;;;;5.10;2.58;;;13.10;99.90;;;;;;5066399;28;20112;-47
2021/08/27 08:16:39;;;;;;;9.02;2.90;;;13.10;99.90;;;;;;5060803;28;20016;-48
2021/08/27 08:19:04;;;;;;;7.25;3.13;;;13.10;99.90;;;;;;5058064;28;20534;-47
2021/08/27 08:21:29;;;;;;;8.45;2.83;;;13.20;99.90;;;;;;5060697;28;20024;-50
2021/08/27 08:23:55;;;;;;;3.55;2.35;;;13.20;99.90;;;;;;5060409;28;20021;-48
2021/08/27 08:26:22;;;;;;;6.15;2.95;;;13.20;99.90;;;;;;5057033;28;20086;-47
2021/08/27 08:28:50;;;;;;;4.07;2.53;;;13.20;99.90;;;;;;5053799;28;20025;-50
2021/08/27 08:31:20;;;;;;;8.20;2.80;;;13.20;99.90;;;;;;5050036;28;20025;-47
2021/08/27 08:33:48;;;;;;;5.68;2.40;;;13.20;99.90;;;;;;5051561;28;20032;-48
2021/08/27 08:36:14;;;;;;;5.88;2.90;;;13.20;99.90;;;;;;5050586;28;20025;-48
2021/08/27 08:38:40;;;;;;;4.03;3.08;;;13.10;99.90;;;;;;5053512;28;20119;-47
2021/08/27 08:41:05;;;;;;;4.70;2.88;;;13.20;99.90;;;;;;5056581;28;20489;-47
2021/08/27 08:43:31;;;;;;;4.13;2.95;;;13.30;99.90;;;;;;5082895;28;20021;-48
2021/08/27 08:45:57;;;;;;;7.15;3.17;;;13.30;99.90;;;;;;5091505;28;20472;-48
2021/08/27 08:48:24;;;;;;;4.72;3.05;;;13.30;99.90;;;;;;5087283;28;20024;-43
2021/08/27 08:50:50;;;;;;;11.95;3.60;;;13.40;99.90;;;;;;5060004;28;20033;-43
2021/08/27 08:53:21;;;;;;;9.20;3.88;;;13.50;99.90;;;;;;5052778;28;20106;-43
2021/08/27 08:55:48;;;;;;;6.93;3.53;;;13.60;99.90;;;;;;5050007;28;20076;-45
2021/08/27 08:58:13;;;;;;;9.00;3.40;;;13.60;99.90;;;;;;5049232;28;20021;-44
2021/08/27 09:00:39;;;;;;;4.45;3.40;;;13.60;99.90;;;;;;5048198;28;20115;-43
2021/08/27 09:03:05;;;;;;;6.13;3.45;;;13.60;99.90;;;;;;5048429;28;20090;-43
2021/08/27 09:05:31;;;;;;;5.72;3.15;;;13.60;99.90;;;;;;5066502;28;20466;-43
2021/08/27 09:07:56;;;;;;;5.40;3.58;;;13.60;99.90;;;;;;5062496;28;20183;-43
2021/08/27 09:10:23;;;;;;;4.80;3.63;;;13.60;99.90;;;;;;5055745;28;20428;-43
2021/08/27 09:12:49;;;;;;;6.18;3.83;;;13.70;99.90;;;;;;5071188;28;20044;-43
2021/08/27 09:15:17;;;;;;;6.55;3.90;;;13.80;99.90;;;;;;5061828;28;20037;-44
2021/08/27 09:17:49;;;;;;;6.03;3.70;;;13.80;99.90;;;;;;5056721;28;20103;-44
2021/08/27 09:20:24;;;;;;;8.57;3.60;;;13.90;99.90;;;;;;5057137;28;20017;-43
2021/08/27 09:22:55;;;;;;;5.82;3.85;;;13.80;99.90;;;;;;5058458;28;20025;-44
2021/08/27 09:25:23;;;;;;;6.35;3.90;;;13.80;99.90;;;;;;5056989;28;20036;-44
2021/08/27 09:28:08;;;;;;;5.32;3.47;;;14.00;99.90;;;;;;5055294;28;20402;-43
2021/08/27 09:30:56;;;;;;;5.55;3.92;;;14.10;99.90;;;;;;5053627;28;20020;-43
2021/08/27 09:33:29;;;;;;;5.75;3.33;;;14.20;99.90;;;;;;5048224;28;20214;-46
2021/08/27 09:35:56;;;;;;;8.38;4.38;;;14.20;99.90;;;;;;5047629;28;20055;-43
2021/08/27 09:38:25;;;;;;;8.65;3.70;;;14.30;99.90;;;;;;5048048;28;20024;-43
2021/08/27 09:41:09;;;;;;;6.00;3.78;;;14.40;99.90;;;;;;5049406;28;20403;-44
2021/08/27 09:43:42;;;;;;;4.47;3.78;;;14.60;99.90;;;;;;5079119;28;20039;-44
2021/08/27 09:46:45;;;;;;;5.68;3.30;;;14.70;99.90;;;;;;5086835;28;20516;-43
2021/08/27 09:49:37;;;;;;;4.65;3.78;;;14.90;99.90;;;;;;5088485;28;20062;-43
2021/08/27 09:52:09;;;;;;;5.53;2.97;;;15.10;99.90;;;;;;5087148;28;20028;-43
2021/08/27 09:54:39;;;;;;;8.15;3.47;;;15.30;99.90;;;;;;5088027;28;20107;-44
2021/08/27 09:57:10;;;;;;;4.95;3.25;;;15.50;99.90;;;;;;5085707;28;20032;-44
2021/08/27 09:59:50;;;;;;;4.20;3.13;;;15.50;99.90;;;;;;5086660;28;20581;-44
2021/08/27 10:02:17;;;;;;;4.75;2.65;;;15.40;99.90;;;;;;5087547;28;20039;-43
2021/08/27 10:04:57;;;;;;;3.72;2.40;;;15.70;99.90;;;;;;5087621;28;20055;-43
2021/08/27 10:07:35;;;;;;;3.73;2.50;;;16.00;99.90;;;;;;5084630;28;20385;-43
2021/08/27 10:10:04;;;;;;;2.15;2.03;;;16.30;99.90;;;;;;5047861;28;20028;-43
2021/08/27 10:12:32;;;;;;;2.95;2.22;;;16.40;99.90;;;;;;5070258;28;20115;-43
2021/08/27 10:14:58;;;;;;;2.50;2.30;;;16.50;99.90;;;;;;5070378;28;20553;-43
2021/08/27 10:17:25;;;;;;;3.10;2.65;;;16.40;99.90;;;;;;5066222;28;20456;-45
2021/08/27 10:19:51;;;;;;;2.33;2.10;;;16.50;99.90;;;;;;5066991;28;20543;-44
2021/08/27 10:22:16;;;;;;;2.28;1.83;;;16.50;99.90;;;;;;5058147;28;20028;-44
2021/08/27 10:24:43;;;;;;;3.38;2.47;;;16.50;99.90;;;;;;5062489;28;20158;-43
2021/08/27 10:27:10;;;;;;;2.85;2.10;;;16.50;99.90;;;;;;5049964;28;20108;-43
2021/08/27 10:29:50;;;;;;;3.28;2.47;;;16.50;99.90;;;;;;5045404;28;20029;-43
2021/08/27 10:32:38;;;;;;;2.67;2.33;;;16.90;99.90;;;;;;5046168;28;20182;-44
2021/08/27 10:35:22;;;;;;;1.70;1.60;;;17.90;99.90;;;;;;5046974;28;20263;-43
2021/08/27 10:37:49;;;;;;;1.77;1.50;;;18.30;99.90;;;;;;5046021;28;20037;-44
2021/08/27 10:40:24;;;;;;;1.65;1.55;;;18.40;99.90;;;;;;5047281;28;20117;-44
2021/08/27 10:42:58;;;;;;;7.03;2.22;;;18.20;99.90;;;;;;5070977;28;20216;-43
2021/08/27 10:45:32;;;;;;;1.88;1.70;;;18.20;99.90;;;;;;5087200;28;20103;-42
2021/08/27 10:48:16;;;;;;;6.50;2.50;;;17.90;99.90;;;;;;5086088;28;20499;-43
2021/08/27 10:50:50;;;;;;;3.33;1.80;;;18.50;99.90;;;;;;5086596;28;20468;-44
2021/08/27 10:53:35;;;;;;;2.50;1.90;;;19.50;99.90;;;;;;5067131;28;20114;-44
2021/08/27 10:56:07;;;;;;;2.60;2.08;;;19.50;99.90;;;;;;5066089;28;20459;-44
2021/08/27 10:58:44;;;;;;;1.80;1.70;;;19.30;99.90;;;;;;5064764;28;20351;-43
2021/08/27 11:01:27;;;;;;;2.70;1.77;;;18.80;99.90;;;;;;5060706;28;20532;-43
2021/08/27 11:04:07;;;;;;;3.50;2.22;;;18.30;99.90;;;;;;5066235;28;20023;-44
2021/08/27 11:06:48;;;;;;;3.33;2.50;;;17.80;99.90;;;;;;5065154;28;20490;-43
2021/08/27 11:09:20;;;;;;;4.70;2.38;;;17.40;99.90;;;;;;5066980;28;20059;-43
2021/08/27 11:11:47;;;;;;;3.40;2.40;;;17.10;99.90;;;;;;5068252;28;20024;-43
2021/08/27 11:14:18;;;;;;;3.58;2.38;;;17.00;99.90;;;;;;5078372;28;20067;-43
2021/08/27 11:16:54;;;;;;;3.97;2.83;;;16.90;99.90;;;;;;5085601;28;20189;-43
2021/08/27 11:19:31;;;;;;;2.83;2.50;;;18.00;99.90;;;;;;5085966;28;20101;-43
2021/08/27 11:22:22;;;;;;;8.90;2.20;;;19.70;99.90;;;;;;5086483;28;20365;-44
2021/08/27 11:25:11;;;;;;;1.95;1.85;;;21.40;99.90;;;;;;5086372;28;20054;-43
2021/08/27 11:27:38;;;;;;;2.40;1.67;;;22.30;99.90;;;;;;5084390;28;20020;-44
2021/08/27 11:30:30;;;;;;;2.80;2.05;;;22.10;99.90;;;;;;5088965;28;20038;-43
2021/08/27 11:32:58;;;;;;;2.38;1.70;;;21.40;99.90;;;;;;5090157;28;20028;-43
2021/08/27 11:35:24;;;;;;;5.22;2.33;;;20.70;99.90;;;;;;5090512;28;20043;-44
2021/08/27 11:37:58;;;;;;;2.42;1.60;;;20.10;99.90;;;;;;5089852;28;20093;-43
2021/08/27 11:40:25;;;;;;;3.40;1.50;;;19.80;99.90;;;;;;5090500;28;20024;-44
2021/08/27 11:42:55;;;;;;;3.03;1.50;;;19.60;99.90;;;;;;5072056;28;20027;-43
2021/08/27 11:45:22;;;;;;;1.98;1.20;;;19.40;99.90;;;;;;5082129;28;20018;-44
2021/08/27 11:47:55;;;;;;;2.08;1.65;;;19.10;99.90;;;;;;5089575;28;20183;-43
2021/08/27 11:50:41;;;;;;;3.20;1.67;;;18.60;99.90;;;;;;5090091;28;20417;-45
2021/08/27 11:53:08;;;;;;;2.38;1.75;;;18.40;99.90;;;;;;5089888;28;20047;-44
2021/08/27 11:55:45;;;;;;;2.55;1.70;;;18.40;99.90;;;;;;5088831;28;20064;-43
2021/08/27 11:58:11;;;;;;;2.38;1.70;;;18.70;99.90;;;;;;5089233;28;20056;-43
2021/08/27 12:00:41;;;;;;;3.53;2.03;;;18.90;99.90;;;;;;5090132;28;20052;-44
2021/08/27 12:03:11;;;;;;;2.63;1.70;;;19.10;99.90;;;;;;5090321;28;20502;-43
2021/08/27 12:05:36;;;;;;;3.05;2.10;;;19.50;99.90;;;;;;5089870;28;20485;-43
2021/08/27 12:08:07;;;;;;;2.55;1.85;;;19.80;99.90;;;;;;5089713;28;20301;-44
2021/08/27 12:10:34;;;;;;;2.00;1.55;;;20.70;99.90;;;;;;5088760;28;20032;-43
2021/08/27 12:13:01;;;;;;;3.33;1.90;;;20.90;99.90;;;;;;5072330;28;20032;-44
2021/08/27 12:15:30;;;;;;;2.78;1.67;;;20.80;99.90;;;;;;5084723;28;20119;-44
2021/08/27 12:17:59;;;;;;;2.80;0.82;;;20.60;99.90;;;;;;5084513;28;20071;-43
2021/08/27 12:20:27;;;;;;;2.65;1.40;;;20.10;99.90;;;;;;5069113;28;20048;-43
2021/08/27 12:22:59;;;;;;;2.63;1.23;;;19.70;99.90;;;;;;5069782;28;20044;-44
2021/08/27 12:25:29;;;;;;;1.27;1.00;;;19.30;99.90;;;;;;5070171;28;20020;-43
2021/08/27 12:27:56;;;;;;;6.35;1.85;;;19.00;99.90;;;;;;5064397;28;20063;-44
2021/08/27 12:30:22;;;;;;;2.25;0.95;;;18.50;99.90;;;;;;5068059;28;20051;-43
2021/08/27 12:32:49;;;;;;;2.08;1.13;;;18.10;99.90;;;;;;5069337;28;20052;-43
2021/08/27 12:35:19;;;;;;;1.92;0.70;;;17.50;99.90;;;;;;5068696;28;20476;-43
2021/08/27 12:37:48;;;;;;;1.40;0.63;;;17.00;99.90;;;;;;5068568;28;20025;-43
2021/08/27 12:40:16;;;;;;;1.85;0.70;;;16.60;99.90;;;;;;5069097;28;20013;-43
2021/08/27 12:43:08;;;;;;;4.53;1.00;;;16.30;99.90;;;;;;5069047;28;20059;-44
2021/08/27 12:45:53;;;;;;;2.72;0.93;;;16.20;99.90;;;;;;5080317;28;20012;-43
2021/08/27 12:48:22;;;;;;;4.80;1.33;;;16.00;99.90;;;;;;5059054;28;20043;-43
2021/08/27 12:50:53;;;;;;;2.50;1.02;;;16.00;99.90;;;;;;5067499;28;20036;-43
2021/08/27 12:53:36;;;;;;;3.90;1.40;;;15.90;99.90;;;;;;5069189;28;20060;-43